createdAt,value
2019-04-22T00:02:18.895Z,57.30
2019-04-22T00:05:03.694Z,57.30
2019-04-22T00:07:42.050Z,57.40
2019-04-22T00:10:19.332Z,57.30
2019-04-22T00:12:57.902Z,57.30
2019-04-22T00:15:19.975Z,57.20
2019-04-22T00:18:05.852Z,57.20
2019-04-22T00:20:28.629Z,57.20
2019-04-22T00:22:57.810Z,57.10
2019-04-22T00:25:36.604Z,57.20
2019-04-22T00:28:08.251Z,57.20
2019-04-22T00:30:33.895Z,57.00
2019-04-22T00:33:08.098Z,57.70
2019-04-22T00:35:41.343Z,57.10
2019-04-22T00:38:21.905Z,57.10
2019-04-22T00:40:46.069Z,56.90
2019-04-22T00:43:20.588Z,56.90
2019-04-22T00:45:47.914Z,56.80
2019-04-22T00:51:01.592Z,56.40
2019-04-22T00:53:31.352Z,56.40
2019-04-22T00:56:20.188Z,56.30
2019-04-22T01:06:24.180Z,56.00
2019-04-22T01:11:31.118Z,55.80
2019-04-22T01:13:58.307Z,55.70
2019-04-22T01:18:55.609Z,55.50
2019-04-22T01:21:36.850Z,55.70
2019-04-22T01:23:59.820Z,55.50
2019-04-22T01:26:29.023Z,55.50
2019-04-22T01:28:59.289Z,55.30
2019-04-22T01:31:20.325Z,55.40
2019-04-22T01:34:03.055Z,55.40
2019-04-22T01:36:38.756Z,55.30
2019-04-22T01:39:16.365Z,55.20
2019-04-22T01:41:54.652Z,55.20
2019-04-22T01:44:24.186Z,54.70
2019-04-22T01:46:50.626Z,55.20
2019-04-22T01:49:25.746Z,55.10
2019-04-22T01:52:01.833Z,55.10
2019-04-22T01:54:29.750Z,55.10
2019-04-22T01:57:01.701Z,55.00
2019-04-22T01:59:22.448Z,55.10
2019-04-22T02:02:07.890Z,55.00
2019-04-22T02:04:38.656Z,55.00
2019-04-22T02:09:37.800Z,55.00
2019-04-22T02:14:39.915Z,54.80
2019-04-22T02:19:46.364Z,54.80
2019-04-22T02:22:24.960Z,54.80
2019-04-22T02:24:44.139Z,54.90
2019-04-22T02:27:29.318Z,54.80
2019-04-22T02:29:47.426Z,54.70
2019-04-22T02:32:56.701Z,54.70
2019-04-22T02:37:22.772Z,54.70
2019-04-22T02:40:03.492Z,54.60
2019-04-22T02:42:57.576Z,54.60
2019-04-22T02:44:58.544Z,54.60
2019-04-22T02:47:31.462Z,54.60
2019-04-22T02:55:11.566Z,54.60
2019-04-22T03:00:29.259Z,54.50
2019-04-22T03:03:09.159Z,54.50
2019-04-22T03:05:19.406Z,54.50
2019-04-22T03:07:50.653Z,54.40
2019-04-22T03:10:18.899Z,54.40
2019-04-22T03:12:53.957Z,54.50
2019-04-22T03:15:20.069Z,54.50
2019-04-22T03:18:00.831Z,54.50
2019-04-22T03:20:45.465Z,54.50
2019-04-22T03:23:09.780Z,54.40
2019-04-22T03:27:51.862Z,54.50
2019-04-22T03:30:56.512Z,54.60
2019-04-22T03:33:16.768Z,54.50
2019-04-22T03:43:37.090Z,54.40
2019-04-22T03:46:06.275Z,54.30
2019-04-22T03:50:43.061Z,54.40
2019-04-22T03:53:29.109Z,54.30
2019-04-22T03:55:53.213Z,54.30
2019-04-22T03:58:23.837Z,54.30
2019-04-22T04:00:55.859Z,54.40
2019-04-22T04:03:57.801Z,54.30
2019-04-22T04:08:46.373Z,54.30
2019-04-22T04:13:33.481Z,54.30
2019-04-22T04:16:03.112Z,54.20
2019-04-22T04:18:47.453Z,54.30
2019-04-22T04:21:22.873Z,54.20
2019-04-22T04:26:31.138Z,54.10
2019-04-22T04:31:27.389Z,54.20
2019-04-22T04:33:51.768Z,54.20
2019-04-22T04:36:27.098Z,54.20
2019-04-22T04:41:35.945Z,54.10
2019-04-22T04:46:38.119Z,54.10
2019-04-22T04:49:09.381Z,54.20
2019-04-22T04:59:13.342Z,54.20
2019-04-22T05:01:35.451Z,54.10
2019-04-22T05:06:43.196Z,54.00
2019-04-22T05:09:14.620Z,54.10
2019-04-22T05:12:01.750Z,54.10
2019-04-22T05:19:15.896Z,54.10
2019-04-22T05:21:47.356Z,54.00
2019-04-22T05:24:29.718Z,54.10
2019-04-22T05:27:05.601Z,54.20
2019-04-22T05:29:19.400Z,54.10
2019-04-22T05:31:55.324Z,54.10
2019-04-22T05:34:21.469Z,54.10
2019-04-22T05:36:58.924Z,54.10
2019-04-22T05:39:21.305Z,54.10
2019-04-22T05:41:54.805Z,54.10
2019-04-22T05:44:32.880Z,54.20
2019-04-22T05:46:53.278Z,54.10
2019-04-22T05:49:28.868Z,54.20
2019-04-22T05:51:55.017Z,54.20
2019-04-22T05:54:33.049Z,54.20
2019-04-22T05:57:04.007Z,54.20
2019-04-22T05:59:44.577Z,54.20
2019-04-22T06:02:13.249Z,54.20
2019-04-22T06:04:46.320Z,54.20
2019-04-22T06:07:14.960Z,54.30
2019-04-22T06:09:38.868Z,54.30
2019-04-22T06:12:12.208Z,54.20
2019-04-22T06:14:48.013Z,54.20
2019-04-22T06:17:24.732Z,54.20
2019-04-22T06:19:54.176Z,54.90
2019-04-22T06:22:31.708Z,54.20
2019-04-22T06:24:57.775Z,54.30
2019-04-22T06:27:30.882Z,54.20
2019-04-22T06:29:54.997Z,54.30
2019-04-22T06:35:10.399Z,54.30
2019-04-22T06:37:36.668Z,54.20
2019-04-22T06:40:10.175Z,54.20
2019-04-22T06:42:39.722Z,54.20
2019-04-22T06:45:15.505Z,54.20
2019-04-22T06:47:53.250Z,54.20
2019-04-22T06:50:16.365Z,54.30
2019-04-22T06:52:41.476Z,54.20
2019-04-22T06:55:16.500Z,54.20
2019-04-22T06:57:43.568Z,54.10
2019-04-22T07:00:18.508Z,54.20
2019-04-22T07:03:10.650Z,54.20
2019-04-22T07:05:25.147Z,54.20
2019-04-22T07:08:02.775Z,54.20
2019-04-22T07:12:53.928Z,54.30
2019-04-22T07:15:44.095Z,54.30
2019-04-22T07:18:04.270Z,54.30
2019-04-22T07:20:30.436Z,54.20
2019-04-22T07:23:08.037Z,54.20
2019-04-22T07:25:34.956Z,54.40
2019-04-22T07:28:05.168Z,54.30
2019-04-22T07:30:41.015Z,54.30
2019-04-22T07:36:00.617Z,54.20
2019-04-22T07:38:20.330Z,54.30
2019-04-22T07:40:51.904Z,54.40
2019-04-22T07:43:21.406Z,54.30
2019-04-22T07:45:49.418Z,54.30
2019-04-22T07:48:32.083Z,54.30
2019-04-22T07:50:55.794Z,54.40
2019-04-22T07:53:23.028Z,54.30
2019-04-22T07:55:51.896Z,54.20
2019-04-22T08:01:03.993Z,54.30
2019-04-22T08:03:37.487Z,54.30
2019-04-22T08:08:29.300Z,54.30
2019-04-22T08:11:08.621Z,54.30
2019-04-22T08:13:36.643Z,54.30
2019-04-22T08:18:55.805Z,54.30
2019-04-22T08:21:13.556Z,54.20
2019-04-22T08:23:46.916Z,55.00
2019-04-22T08:26:11.124Z,54.20
2019-04-22T08:28:45.962Z,54.20
2019-04-22T08:31:27.054Z,54.20
2019-04-22T08:33:57.061Z,54.20
2019-04-22T08:36:26.323Z,54.30
2019-04-22T08:39:01.971Z,54.30
2019-04-22T08:44:08.756Z,54.30
2019-04-22T08:49:00.733Z,54.30
2019-04-22T08:51:29.289Z,54.30
2019-04-22T08:54:07.877Z,54.40
2019-04-22T08:56:43.708Z,54.40
2019-04-22T08:59:12.522Z,54.60
2019-04-22T09:01:37.672Z,54.70
2019-04-22T09:04:10.107Z,54.70
2019-04-22T09:07:01.364Z,54.90
2019-04-22T09:09:34.339Z,55.00
2019-04-22T09:11:47.125Z,55.00
2019-04-22T09:14:26.678Z,55.00
2019-04-22T09:16:49.776Z,54.80
2019-04-22T09:19:23.401Z,54.40
2019-04-22T09:24:23.661Z,53.60
2019-04-22T09:27:00.332Z,53.80
2019-04-22T09:29:33.986Z,53.00
2019-04-22T09:32:05.250Z,53.10
2019-04-22T09:34:33.678Z,53.20
2019-04-22T09:37:12.687Z,53.00
2019-04-22T09:42:24.071Z,52.40
2019-04-22T09:44:41.993Z,52.70
2019-04-22T09:47:13.200Z,52.30
2019-04-22T09:49:51.924Z,52.00
2019-04-22T09:52:18.280Z,52.00
2019-04-22T09:54:57.311Z,51.80
2019-04-22T09:57:15.578Z,51.50
2019-04-22T09:59:57.886Z,51.20
2019-04-22T10:02:28.441Z,51.20
2019-04-22T10:05:03.575Z,51.60
2019-04-22T10:07:27.578Z,51.90
2019-04-22T10:10:03.422Z,51.70
2019-04-22T10:12:34.904Z,52.00
2019-04-22T10:15:00.187Z,47.30
2019-04-22T10:17:32.221Z,42.60
2019-04-22T10:20:07.122Z,40.70
2019-04-22T10:22:43.977Z,39.90
2019-04-22T10:25:10.850Z,39.20
2019-04-22T10:27:46.226Z,39.90
2019-04-22T10:30:16.856Z,38.50
2019-04-22T10:32:44.580Z,37.70
2019-04-22T10:35:12.262Z,38.40
2019-04-22T10:37:38.656Z,39.40
2019-04-22T10:40:15.698Z,39.50
2019-04-22T10:42:45.552Z,39.60
2019-04-22T10:45:16.513Z,39.90
2019-04-22T10:47:47.895Z,40.60
2019-04-22T10:50:18.699Z,41.50
2019-04-22T10:52:49.704Z,41.70
2019-04-22T10:55:21.302Z,42.30
2019-04-22T10:57:52.672Z,41.20
2019-04-22T11:00:24.005Z,41.50
2019-04-22T11:02:54.026Z,41.50
2019-04-22T11:05:24.157Z,42.20
2019-04-22T11:07:59.621Z,40.50
2019-04-22T11:10:36.793Z,40.70
2019-04-22T11:12:58.926Z,40.80
2019-04-22T11:15:29.034Z,41.30
2019-04-22T11:17:59.734Z,41.90
2019-04-22T11:20:31.389Z,42.50
2019-04-22T11:23:02.643Z,42.90
2019-04-22T11:25:33.953Z,43.30
2019-04-22T11:28:05.551Z,43.70
2019-04-22T11:30:36.691Z,44.00
2019-04-22T11:33:06.835Z,44.30
2019-04-22T11:35:37.607Z,44.80
2019-04-22T11:38:08.770Z,45.00
2019-04-22T11:40:43.894Z,45.50
2019-04-22T11:43:10.444Z,45.90
2019-04-22T11:45:41.586Z,46.20
2019-04-22T11:48:13.164Z,46.50
2019-04-22T11:50:43.986Z,46.50
2019-04-22T11:53:14.093Z,46.80
2019-04-22T11:55:44.766Z,47.00
2019-04-22T11:58:15.034Z,47.10
2019-04-22T12:00:45.428Z,47.20
2019-04-22T12:03:16.711Z,47.60
2019-04-22T12:05:48.065Z,47.60
2019-04-22T12:08:18.208Z,47.80
2019-04-22T12:10:53.231Z,47.80
2019-04-22T12:13:21.854Z,48.00
2019-04-22T12:15:53.302Z,48.10
2019-04-22T12:18:24.938Z,48.20
2019-04-22T12:20:55.327Z,48.30
2019-04-22T12:23:25.428Z,48.60
2019-04-22T12:26:01.884Z,48.80
2019-04-22T12:28:26.843Z,48.90
2019-04-22T12:30:57.398Z,49.10
2019-04-22T12:33:27.714Z,49.00
2019-04-22T12:35:57.748Z,49.20
2019-04-22T12:38:27.597Z,49.20
2019-04-22T12:41:02.799Z,49.40
2019-04-22T12:43:29.833Z,49.50
2019-04-22T12:46:00.748Z,49.60
2019-04-22T12:48:31.055Z,49.70
2019-04-22T12:51:01.236Z,49.80
2019-04-22T12:53:31.924Z,49.80
2019-04-22T12:56:02.956Z,50.00
2019-04-22T12:58:33.856Z,50.00
2019-04-22T13:01:04.630Z,50.10
2019-04-22T13:03:36.079Z,50.60
2019-04-22T13:06:07.698Z,50.20
2019-04-22T13:08:38.147Z,50.20
2019-04-22T13:11:12.979Z,50.20
2019-04-22T13:13:40.982Z,50.30
2019-04-22T13:16:11.101Z,50.40
2019-04-22T13:18:49.273Z,50.50
2019-04-22T13:21:13.118Z,50.20
2019-04-22T13:23:44.432Z,50.40
2019-04-22T13:26:15.083Z,50.40
2019-04-22T13:28:45.218Z,50.40
2019-04-22T13:31:16.073Z,50.40
2019-04-22T13:33:47.522Z,50.60
2019-04-22T13:36:20.644Z,50.50
2019-04-22T13:38:51.197Z,50.50
2019-04-22T13:41:31.725Z,50.60
2019-04-22T13:43:53.859Z,50.70
2019-04-22T13:46:24.074Z,50.70
2019-04-22T13:49:35.433Z,50.90
2019-04-22T13:51:52.097Z,51.00
2019-04-22T13:56:50.622Z,51.00
2019-04-22T13:59:10.163Z,51.00
2019-04-22T14:01:40.885Z,50.90
2019-04-22T14:04:16.430Z,51.10
2019-04-22T14:06:46.996Z,51.00
2019-04-22T14:09:18.595Z,51.30
2019-04-22T14:11:52.873Z,51.10
2019-04-22T14:14:20.216Z,51.10
2019-04-22T14:16:50.997Z,51.30
2019-04-22T14:19:20.902Z,51.20
2019-04-22T14:21:51.580Z,51.30
2019-04-22T14:24:21.747Z,51.20
2019-04-22T14:27:08.850Z,51.20
2019-04-22T14:29:43.769Z,51.30
2019-04-22T14:32:19.354Z,51.30
2019-04-22T14:34:46.927Z,51.30
2019-04-22T14:37:18.560Z,51.30
2019-04-22T14:39:48.639Z,51.30
2019-04-22T14:42:40.128Z,51.30
2019-04-22T14:45:22.027Z,51.30
2019-04-22T14:47:47.924Z,51.30
2019-04-22T14:50:18.452Z,51.30
2019-04-22T14:52:47.486Z,51.30
2019-04-22T14:55:06.030Z,51.40
2019-04-22T14:57:28.556Z,51.50
2019-04-22T14:59:59.815Z,51.50
2019-04-22T15:02:29.948Z,51.50
2019-04-22T15:05:00.576Z,51.50
2019-04-22T15:07:30.860Z,51.50
2019-04-22T15:10:01.940Z,51.40
2019-04-22T15:12:39.292Z,51.50
2019-04-22T15:15:11.327Z,51.50
2019-04-22T15:17:42.966Z,51.60
2019-04-22T15:20:19.538Z,51.50
2019-04-22T15:22:50.616Z,51.40
2019-04-22T15:25:22.860Z,51.50
2019-04-22T15:27:53.347Z,51.60
2019-04-22T15:30:23.665Z,51.50
2019-04-22T15:32:53.753Z,51.50
2019-04-22T15:35:25.136Z,51.50
2019-04-22T15:37:55.345Z,51.50
2019-04-22T15:40:26.719Z,51.50
2019-04-22T15:42:57.030Z,51.60
2019-04-22T15:45:28.544Z,51.50
2019-04-22T15:47:59.921Z,51.60
2019-04-22T15:50:30.883Z,51.70
2019-04-22T15:53:02.642Z,51.60
2019-04-22T15:55:32.698Z,52.30
2019-04-22T15:58:03.907Z,51.80
2019-04-22T16:00:51.083Z,51.70
2019-04-22T16:03:08.608Z,51.80
2019-04-22T16:05:37.286Z,51.60
2019-04-22T16:08:08.661Z,51.70
2019-04-22T16:10:39.869Z,51.80
2019-04-22T16:13:17.279Z,51.70
2019-04-22T16:15:42.723Z,51.80
2019-04-22T16:18:15.120Z,51.90
2019-04-22T16:20:46.157Z,51.70
2019-04-22T16:23:20.809Z,51.70
2019-04-22T16:26:07.735Z,51.80
2019-04-22T16:28:39.269Z,51.80
2019-04-22T16:31:09.638Z,51.90
2019-04-22T16:33:42.221Z,51.80
2019-04-22T16:36:13.022Z,51.80
2019-04-22T16:38:43.158Z,51.80
2019-04-22T16:41:14.638Z,51.90
2019-04-22T16:43:44.804Z,51.80
2019-04-22T16:46:15.934Z,52.00
2019-04-22T16:48:47.494Z,51.50
2019-04-22T16:51:18.043Z,52.00
2019-04-22T16:53:50.671Z,52.10
2019-04-22T16:56:20.617Z,52.10
2019-04-22T16:58:52.663Z,52.10
2019-04-22T17:01:43.149Z,52.10
2019-04-22T17:04:18.776Z,52.10
2019-04-22T17:06:50.287Z,52.10
2019-04-22T17:09:21.523Z,52.30
2019-04-22T17:11:52.173Z,52.20
2019-04-22T17:14:27.254Z,52.20
2019-04-22T17:16:54.738Z,52.30
2019-04-22T17:19:24.789Z,52.20
2019-04-22T17:21:55.300Z,52.30
2019-04-22T17:24:25.759Z,52.40
2019-04-22T17:26:56.678Z,52.30
2019-04-22T17:29:28.179Z,52.30
2019-04-22T17:32:05.580Z,52.20
2019-04-22T17:34:29.941Z,52.40
2019-04-22T17:37:05.953Z,52.30
2019-04-22T17:39:45.315Z,52.40
2019-04-22T17:42:27.899Z,52.50
2019-04-22T17:45:03.098Z,52.40
2019-04-22T17:47:40.730Z,52.40
2019-04-22T17:50:17.152Z,52.30
2019-04-22T17:52:51.033Z,52.40
2019-04-22T17:55:21.523Z,52.40
2019-04-22T17:57:52.672Z,52.40
2019-04-22T18:00:25.047Z,52.40
2019-04-22T18:02:55.973Z,52.40
2019-04-22T18:05:18.684Z,52.50
2019-04-22T18:08:09.989Z,52.40
2019-04-22T18:10:42.635Z,52.40
2019-04-22T18:13:20.488Z,52.40
2019-04-22T18:15:45.048Z,52.40
2019-04-22T18:18:19.013Z,52.50
2019-04-22T18:20:39.087Z,52.40
2019-04-22T18:23:04.297Z,52.50
2019-04-22T18:25:52.193Z,52.40
2019-04-22T18:28:25.171Z,52.50
2019-04-22T18:30:47.579Z,52.40
2019-04-22T18:33:27.374Z,52.40
2019-04-22T18:35:55.341Z,52.40
2019-04-22T18:38:41.133Z,52.40
2019-04-22T18:40:54.731Z,52.40
2019-04-22T18:43:33.565Z,52.40
2019-04-22T18:46:07.918Z,52.50
2019-04-22T18:48:35.697Z,52.40
2019-04-22T18:51:13.374Z,52.40
2019-04-22T18:53:59.098Z,52.40
2019-04-22T18:56:24.028Z,52.50
2019-04-22T18:58:51.317Z,52.40
2019-04-22T19:01:12.493Z,52.40
2019-04-22T19:03:51.481Z,52.40
2019-04-22T19:06:44.728Z,52.40
2019-04-22T19:09:10.549Z,52.30
2019-04-22T19:11:46.228Z,52.20
2019-04-22T19:14:10.152Z,52.20
2019-04-22T19:17:07.355Z,52.30
2019-04-22T19:19:30.455Z,52.30
2019-04-22T19:21:50.034Z,52.20
2019-04-22T19:24:17.339Z,52.10
2019-04-22T19:26:59.122Z,52.10
2019-04-22T19:29:28.561Z,52.20
2019-04-22T19:31:55.884Z,51.90
2019-04-22T19:34:25.648Z,52.00
2019-04-22T19:36:56.210Z,51.70
2019-04-22T19:39:26.522Z,51.50
2019-04-22T19:42:04.252Z,51.30
2019-04-22T19:44:30.884Z,51.40
2019-04-22T19:47:22.615Z,51.30
2019-04-22T19:49:45.531Z,51.40
2019-04-22T19:52:11.446Z,51.80
2019-04-22T19:54:43.972Z,52.10
2019-04-22T19:57:03.660Z,52.20
2019-04-22T19:59:57.423Z,52.40
2019-04-22T20:02:35.916Z,52.40
2019-04-22T20:05:34.001Z,52.50
2019-04-22T20:07:58.902Z,52.60
2019-04-22T20:10:29.592Z,52.70
2019-04-22T20:13:07.629Z,52.80
2019-04-22T20:15:30.943Z,52.80
2019-04-22T20:20:45.048Z,52.90
2019-04-22T20:23:06.716Z,53.20
2019-04-22T20:25:41.086Z,53.50
2019-04-22T20:28:19.463Z,53.50
2019-04-22T20:30:46.752Z,53.50
2019-04-22T20:33:19.003Z,52.60
2019-04-22T20:35:52.065Z,53.50
2019-04-22T20:38:18.247Z,54.00
2019-04-22T20:40:55.293Z,53.90
2019-04-22T20:43:35.653Z,54.00
2019-04-22T20:46:03.125Z,54.90
2019-04-22T20:48:22.802Z,55.10
2019-04-22T20:51:00.951Z,55.60
2019-04-22T20:53:38.004Z,55.80
2019-04-22T20:56:07.846Z,56.10
2019-04-22T20:58:34.172Z,56.60
2019-04-22T21:00:59.586Z,56.70
2019-04-22T21:03:29.422Z,56.90
2019-04-22T21:06:08.738Z,57.10
2019-04-22T21:08:42.184Z,57.20
2019-04-22T21:11:12.360Z,57.30
2019-04-22T21:13:40.977Z,57.30
2019-04-22T21:16:21.662Z,57.30
2019-04-22T21:18:43.902Z,57.10
2019-04-22T21:21:20.239Z,57.20
2019-04-22T21:23:42.383Z,57.10
2019-04-22T21:26:19.422Z,57.00
2019-04-22T21:28:53.239Z,57.00
2019-04-22T21:31:29.633Z,57.00
2019-04-22T21:34:02.153Z,57.00
2019-04-22T21:36:35.190Z,57.00
2019-04-22T21:38:57.588Z,56.80
2019-04-22T21:41:34.114Z,56.90
2019-04-22T21:44:05.500Z,56.90
2019-04-22T21:46:37.176Z,56.80
2019-04-22T21:49:06.333Z,56.70
2019-04-22T21:51:43.534Z,56.70
2019-04-22T21:54:15.523Z,56.60
2019-04-22T21:57:09.069Z,56.60
2019-04-22T21:59:30.913Z,56.60
2019-04-22T22:02:05.593Z,56.70
2019-04-22T22:04:32.588Z,56.40
2019-04-22T22:06:56.866Z,56.40
2019-04-22T22:09:39.131Z,56.30
2019-04-22T22:12:05.209Z,56.40
2019-04-22T22:14:39.817Z,56.50
2019-04-22T22:17:14.169Z,56.50
2019-04-22T22:19:43.945Z,56.30
2019-04-22T22:22:40.158Z,56.30
2019-04-22T22:24:49.848Z,56.30
2019-04-22T22:27:19.041Z,56.40
2019-04-22T22:30:05.150Z,56.40
2019-04-22T22:32:27.558Z,56.40
2019-04-22T22:35:00.562Z,56.30
2019-04-22T22:37:15.875Z,56.30
2019-04-22T22:39:50.458Z,56.20
2019-04-22T22:42:10.895Z,56.20
2019-04-22T22:44:46.784Z,56.20
2019-04-22T22:47:34.279Z,56.00
2019-04-22T22:50:03.256Z,55.90
2019-04-22T22:52:50.338Z,55.90
2019-04-22T22:55:12.069Z,55.80
2019-04-22T22:57:44.360Z,55.80
2019-04-22T23:00:11.095Z,55.90
2019-04-22T23:03:03.402Z,55.80
2019-04-22T23:05:18.498Z,55.80
2019-04-22T23:07:57.180Z,55.80
2019-04-22T23:10:17.520Z,55.70
2019-04-22T23:12:57.317Z,55.70
2019-04-22T23:15:22.044Z,55.70
2019-04-22T23:17:37.026Z,55.70
2019-04-22T23:20:07.109Z,55.70
2019-04-22T23:23:03.386Z,55.70
2019-04-22T23:25:53.251Z,55.80
2019-04-22T23:27:59.705Z,55.70
2019-04-22T23:30:25.229Z,55.60
2019-04-22T23:33:03.560Z,55.60
2019-04-22T23:35:42.809Z,55.60
2019-04-22T23:38:10.772Z,55.60
2019-04-22T23:40:52.779Z,55.60
2019-04-22T23:45:56.650Z,55.70
2019-04-22T23:48:21.067Z,55.60
2019-04-22T23:50:55.865Z,55.60
2019-04-22T23:54:00.898Z,55.60
2019-04-22T23:56:11.086Z,55.50
